Time;durP1;ratioP1;P1;durP2;ratioP2;P2;SDS_P1;SDS_P2;PMS_P1;PMS_P2;Temp;Humidity;BMP_temperature;BMP_pressure;BME280_temperature;BME280_humidity;BME280_pressure;Samples;Min_cycle;Max_cycle;Signal;HPM_P1;HPM_P2
2022/10/17 00:05:06;;;;;;;3.55;2.10;;;;;;;20.27;48.36;101430.63;16124923;19;130251;-38
2022/10/17 00:10:28;;;;;;;4.90;1.80;;;;;;;20.27;48.13;101421.44;16122121;19;130827;-37
2022/10/17 00:15:49;;;;;;;3.28;1.90;;;;;;;20.26;47.92;101422.53;16120179;19;129389;-38
2022/10/17 00:21:16;;;;;;;2.50;1.52;;;;;;;20.26;48.33;101425.28;16123468;19;129837;-38
2022/10/17 00:26:37;;;;;;;2.78;1.60;;;;;;;20.25;48.18;101426.38;16124459;19;129605;-37
2022/10/17 00:31:59;;;;;;;2.33;1.50;;;;;;;20.23;47.93;101418.31;16121847;19;130166;-37
2022/10/17 00:37:21;;;;;;;2.08;1.48;;;;;;;20.21;47.94;101416.88;16121566;19;130621;-37
2022/10/17 00:42:42;;;;;;;3.15;1.10;;;;;;;20.21;47.92;101422.44;16122081;19;129682;-37
2022/10/17 00:48:07;;;;;;;3.10;1.30;;;;;;;20.20;47.89;101432.69;16120117;19;129407;-37
2022/10/17 00:53:29;;;;;;;2.43;1.50;;;;;;;20.18;48.14;101423.78;16121744;19;129489;-38
2022/10/17 00:58:51;;;;;;;2.58;1.30;;;;;;;20.18;48.34;101429.34;16138953;19;130329;-36
2022/10/17 01:04:13;;;;;;;1.98;1.25;;;;;;;20.17;48.24;101421.22;16133966;19;130495;-38
2022/10/17 01:09:35;;;;;;;2.05;1.20;;;;;;;20.15;48.10;101418.69;16133917;19;132440;-37
2022/10/17 01:15:21;;;;;;;1.67;1.10;;;;;;;20.16;48.30;101414.84;16134731;19;129410;-37
2022/10/17 01:21:15;;;;;;;1.47;1.33;;;;;;;20.13;47.92;101413.38;16137077;19;129307;-37
2022/10/17 01:26:42;;;;;;;2.50;1.27;;;;;;;20.12;47.90;101419.19;16133748;19;129443;-37
2022/10/17 01:32:26;;;;;;;1.42;1.15;;;;;;;20.12;48.05;101420.00;16134364;19;129688;-37
2022/10/17 01:38:10;;;;;;;2.35;1.25;;;;;;;20.11;48.27;101423.03;16133330;19;130066;-37
2022/10/17 01:43:57;;;;;;;1.45;1.10;;;;;;;20.12;48.37;101430.28;16134226;19;129546;-38
2022/10/17 01:49:24;;;;;;;2.63;1.30;;;;;;;20.09;48.30;101417.75;16133049;19;129474;-37
2022/10/17 01:54:51;;;;;;;2.90;1.15;;;;;;;20.07;48.08;101417.13;16128999;19;129413;-37
2022/10/17 02:00:18;;;;;;;2.95;1.40;;;;;;;20.09;47.90;101419.66;16128947;19;129351;-37
2022/10/17 02:05:41;;;;;;;2.28;1.20;;;;;;;20.07;48.31;101410.72;16131748;19;129695;-37
2022/10/17 02:11:11;;;;;;;2.47;1.20;;;;;;;20.06;48.25;101409.06;16129550;19;129988;-38
2022/10/17 02:17:05;;;;;;;1.70;1.20;;;;;;;20.06;47.83;101409.91;16129872;19;129371;-37
2022/10/17 02:22:42;;;;;;;1.65;1.02;;;;;;;20.04;47.87;101398.19;16123352;19;130593;-37
2022/10/17 02:28:27;;;;;;;1.92;0.82;;;;;;;20.04;48.04;101405.69;16128764;19;130306;-37
2022/10/17 02:33:58;;;;;;;1.50;0.80;;;;;;;20.02;48.22;101394.78;16129500;19;129619;-37
2022/10/17 02:39:22;;;;;;;1.35;0.68;;;;;;;20.01;48.27;101407.00;16129846;19;135914;-37
2022/10/17 02:44:45;;;;;;;2.28;1.08;;;;;;;20.01;48.02;101397.81;16129643;19;130996;-37
2022/10/17 02:50:07;;;;;;;0.82;0.60;;;;;;;19.99;47.85;101401.69;16126902;19;129511;-37
2022/10/17 02:55:37;;;;;;;0.85;0.60;;;;;;;20.00;47.79;101402.53;16127082;19;129523;-37
2022/10/17 03:00:59;;;;;;;1.65;0.93;;;;;;;19.99;48.02;101398.06;16128168;19;129512;-38
2022/10/17 03:06:21;;;;;;;0.90;0.63;;;;;;;19.98;48.04;101397.19;16123836;19;129569;-38
2022/10/17 03:11:43;;;;;;;1.58;0.60;;;;;;;19.98;48.28;101405.53;16128074;19;130341;-38
2022/10/17 03:17:04;;;;;;;1.42;0.70;;;;;;;19.98;48.02;101407.47;16128359;19;131067;-37
2022/10/17 03:22:26;;;;;;;1.48;0.80;;;;;;;19.97;48.01;101394.66;16126601;19;129399;-38
2022/10/17 03:27:48;;;;;;;2.15;0.77;;;;;;;19.96;47.87;101399.38;16125752;19;130666;-37
2022/10/17 03:33:10;;;;;;;1.35;0.70;;;;;;;19.96;48.30;101417.97;16127752;19;129239;-37
2022/10/17 03:38:33;;;;;;;0.80;0.52;;;;;;;19.95;48.30;101413.50;16127114;19;129323;-37
2022/10/17 03:43:55;;;;;;;0.82;0.50;;;;;;;19.94;48.25;101417.38;16126898;19;133061;-37
2022/10/17 03:49:16;;;;;;;2.67;0.68;;;;;;;19.95;48.02;101407.94;16125557;19;130395;-37
2022/10/17 03:54:38;;;;;;;1.05;0.70;;;;;;;19.93;47.74;101405.44;16126920;19;129046;-37
2022/10/17 04:00:00;;;;;;;1.13;0.50;;;;;;;19.92;48.22;101414.84;16124404;19;131032;-37
2022/10/17 04:05:22;;;;;;;1.48;0.60;;;;;;;19.92;48.02;101431.50;16122145;19;129590;-37
2022/10/17 04:10:44;;;;;;;0.85;0.60;;;;;;;19.93;48.26;101440.66;16123743;19;129604;-36
2022/10/17 04:16:10;;;;;;;1.13;0.52;;;;;;;19.93;48.02;101451.78;16122421;19;129076;-37
2022/10/17 04:21:32;;;;;;;2.42;0.93;;;;;;;19.91;48.04;101456.72;16123329;19;130162;-37
2022/10/17 04:26:54;;;;;;;1.15;0.60;;;;;;;19.90;47.88;101472.56;16123563;19;130229;-37
2022/10/17 04:32:16;;;;;;;2.00;0.60;;;;;;;19.90;48.06;101469.78;16117867;19;130033;-37
2022/10/17 04:37:37;;;;;;;1.08;0.63;;;;;;;19.90;48.05;101466.13;16122349;19;130392;-37
2022/10/17 04:42:59;;;;;;;0.85;0.50;;;;;;;19.89;47.84;101456.97;16121832;19;129635;-37
2022/10/17 04:48:21;;;;;;;0.80;0.60;;;;;;;19.89;47.80;101467.22;16120564;19;129089;-38
2022/10/17 04:53:43;;;;;;;0.40;0.30;;;;;;;19.88;48.25;101474.72;16122563;19;129518;-37
2022/10/17 04:59:05;;;;;;;0.95;0.60;;;;;;;19.87;48.17;101473.03;16120457;19;129194;-37
2022/10/17 05:04:27;;;;;;;0.60;0.40;;;;;;;19.88;47.88;101480.28;16119609;19;129168;-37
2022/10/17 05:09:48;;;;;;;0.40;0.35;;;;;;;19.89;48.28;101503.31;16118973;19;128926;-38
2022/10/17 05:15:10;;;;;;;0.60;0.60;;;;;;;19.88;48.04;101508.03;16120081;19;130185;-38
2022/10/17 05:20:32;;;;;;;5.22;0.90;;;;;;;19.89;48.36;101508.88;16121839;19;129782;-38
2022/10/17 05:25:54;;;;;;;1.85;0.63;;;;;;;19.87;47.91;101503.56;16122406;19;130087;-37
2022/10/17 05:31:16;;;;;;;2.25;0.80;;;;;;;19.87;48.22;101498.00;16120577;19;129802;-37
2022/10/17 05:36:38;;;;;;;1.00;0.40;;;;;;;19.87;48.14;101505.50;16120198;19;129711;-37
2022/10/17 05:42:00;;;;;;;1.83;0.40;;;;;;;19.86;47.90;101504.66;16130060;19;132017;-37
2022/10/17 05:47:21;;;;;;;1.00;0.47;;;;;;;19.86;48.13;101510.22;16132702;19;129125;-37
2022/10/17 05:52:43;;;;;;;1.70;0.68;;;;;;;19.85;48.15;101508.50;16131571;19;130414;-37
2022/10/17 05:58:07;;;;;;;1.42;0.63;;;;;;;19.85;47.89;101508.50;16133079;19;129916;-38
2022/10/17 06:03:38;;;;;;;2.72;0.75;;;;;;;19.86;48.15;101520.47;16131529;19;129497;-38
2022/10/17 06:09:00;;;;;;;1.35;0.60;;;;;;;19.84;48.47;101523.47;16132541;19;130348;-38
2022/10/17 06:14:21;;;;;;;8.27;0.80;;;;;;;19.83;48.40;101525.44;16132449;19;129681;-40
2022/10/17 06:19:46;;;;;;;2.95;0.75;;;;;;;19.83;48.42;101519.88;16133810;19;130746;-40
2022/10/17 06:25:08;;;;;;;3.10;0.67;;;;;;;19.83;48.20;101535.66;16131159;19;129552;-40
2022/10/17 06:30:30;;;;;;;5.55;0.98;;;;;;;19.83;48.02;101541.22;16131536;19;129231;-40
2022/10/17 06:35:53;;;;;;;2.67;0.75;;;;;;;19.83;48.10;101542.09;16127986;19;129552;-39
2022/10/17 06:41:18;;;;;;;1.48;0.60;;;;;;;19.83;48.18;101541.22;16128466;19;133366;-39
2022/10/17 06:46:39;;;;;;;2.88;0.82;;;;;;;19.82;48.00;101548.72;16130867;19;129589;-40
2022/10/17 06:52:01;;;;;;;0.98;0.57;;;;;;;19.83;47.98;101560.66;16126347;19;129141;-40
2022/10/17 06:57:23;;;;;;;3.38;0.70;;;;;;;19.83;48.46;101571.75;16124997;19;130330;-39
2022/10/17 07:02:45;;;;;;;2.92;0.50;;;;;;;19.83;48.26;101582.88;16116700;19;129741;-39
2022/10/17 07:08:07;;;;;;;3.58;0.82;;;;;;;19.82;48.38;101642.25;16116332;19;129665;-39
2022/10/17 07:13:29;;;;;;;3.90;0.43;;;;;;;19.81;48.31;101652.53;16118719;19;129689;-40
2022/10/17 07:18:53;;;;;;;1.45;0.50;;;;;;;19.80;48.33;101667.50;16127521;19;131388;-40
2022/10/17 07:24:15;;;;;;;0.98;0.47;;;;;;;19.80;48.30;101672.22;16126100;19;130863;-40
2022/10/17 07:29:37;;;;;;;1.48;0.30;;;;;;;19.80;48.12;101680.53;16127709;19;129578;-40
2022/10/17 07:34:58;;;;;;;3.53;0.80;;;;;;;19.79;48.49;101690.78;16124104;19;129169;-41
2022/10/17 07:40:20;;;;;;;2.05;0.77;;;;;;;19.79;48.26;101701.06;16124229;19;129934;-40
2022/10/17 07:45:42;;;;;;;4.55;0.73;;;;;;;19.79;48.48;101726.03;16126513;19;129734;-40
2022/10/17 07:51:06;;;;;;;3.83;0.70;;;;;;;19.78;48.01;101747.41;16127065;19;129755;-40
2022/10/17 07:56:28;;;;;;;0.82;0.43;;;;;;;19.78;48.51;101766.00;16126194;19;130404;-41
2022/10/17 08:01:50;;;;;;;1.02;0.50;;;;;;;19.77;48.16;101779.03;16116531;19;131191;-40
2022/10/17 08:07:11;;;;;;;2.80;0.52;;;;;;;19.77;48.44;101779.03;16124537;19;130537;-40
2022/10/17 08:12:43;;;;;;;1.60;0.47;;;;;;;19.76;48.40;101788.44;16124599;19;129700;-39
2022/10/17 08:18:05;;;;;;;1.42;0.50;;;;;;;19.77;48.49;101772.63;16124398;19;129359;-40
2022/10/17 08:23:28;;;;;;;2.13;0.68;;;;;;;19.76;48.17;101759.81;16122868;19;129301;-40
2022/10/17 08:28:49;;;;;;;0.93;0.40;;;;;;;19.75;48.34;101747.03;16124710;19;129653;-40
2022/10/17 08:34:11;;;;;;;0.63;0.40;;;;;;;19.75;48.39;101774.78;16124158;19;129855;-40
2022/10/17 08:39:33;;;;;;;1.45;0.45;;;;;;;19.74;48.45;101793.38;16126086;19;128948;-40
2022/10/17 08:45:09;;;;;;;1.10;0.57;;;;;;;19.76;48.17;101826.47;16122565;19;130203;-40
2022/10/17 08:50:56;;;;;;;1.73;0.47;;;;;;;19.75;48.33;101814.53;16125323;19;129271;-40
2022/10/17 08:56:22;;;;;;;3.03;0.60;;;;;;;19.73;48.42;101776.94;16122760;19;129326;-40
2022/10/17 09:02:51;;;;;;;1.77;0.50;;;;;;;19.74;48.42;101764.75;16120693;19;130149;-40
2022/10/17 09:08:22;;;;;;;0.40;0.40;;;;;;;19.72;48.23;101781.66;16111002;19;129853;-39
2022/10/17 09:14:22;;;;;;;1.60;0.43;;;;;;;19.75;48.15;101794.22;16110360;19;129760;-40
2022/10/17 09:20:08;;;;;;;1.83;0.60;;;;;;;19.74;48.15;101778.66;16127780;19;129521;-39
2022/10/17 09:25:40;;;;;;;2.30;0.35;;;;;;;19.73;48.21;101760.28;16125613;19;130913;-40
2022/10/17 09:31:04;;;;;;;4.22;0.68;;;;;;;19.73;48.46;101763.06;16126500;19;129726;-39
2022/10/17 09:36:33;;;;;;;0.73;0.40;;;;;;;19.74;48.15;101756.44;16124805;19;130686;-39
2022/10/17 09:41:58;;;;;;;0.80;0.43;;;;;;;19.71;48.40;101768.00;16128363;19;130694;-39
2022/10/17 09:47:42;;;;;;;0.98;0.55;;;;;;;19.74;48.42;101778.66;16132324;19;129469;-40
2022/10/17 09:53:20;;;;;;;1.15;0.50;;;;;;;19.73;48.41;101821.38;16135342;19;129801;-40
2022/10/17 09:58:45;;;;;;;0.57;0.40;;;;;;;19.70;48.47;101836.56;16135865;19;129353;-40
2022/10/17 10:04:15;;;;;;;1.52;0.40;;;;;;;19.72;48.40;101844.66;16132178;19;129377;-40
2022/10/17 10:09:37;;;;;;;3.03;0.40;;;;;;;19.71;48.19;101846.59;16132651;19;130329;-40
2022/10/17 10:15:00;;;;;;;0.60;0.40;;;;;;;19.71;48.39;101856.84;16132351;19;129753;-44
2022/10/17 10:20:30;;;;;;;2.17;0.40;;;;;;;19.73;48.17;101871.34;16129994;19;129651;-40
2022/10/17 10:25:57;;;;;;;0.30;0.20;;;;;;;19.73;48.11;101882.44;16128963;19;129679;-40
2022/10/17 10:31:26;;;;;;;0.60;0.20;;;;;;;19.74;48.29;101884.16;16132215;19;129255;-45
2022/10/17 10:37:05;;;;;;;1.85;0.35;;;;;;;19.72;48.23;101886.28;16128628;19;130520;-40
2022/10/17 10:42:33;;;;;;;0.50;0.30;;;;;;;19.71;48.47;101896.56;16131110;19;129418;-39
2022/10/17 10:47:58;;;;;;;3.55;0.40;;;;;;;19.71;48.06;101896.56;16127398;19;129344;-39
2022/10/17 10:53:31;;;;;;;0.30;0.20;;;;;;;19.72;48.47;101894.63;16131571;19;129248;-39
2022/10/17 10:59:07;;;;;;;0.30;0.30;;;;;;;19.72;48.06;101908.50;16132519;19;129650;-40
2022/10/17 11:04:41;;;;;;;3.08;0.30;;;;;;;19.72;48.13;101914.94;16129304;19;129504;-39
2022/10/17 11:10:24;;;;;;;0.35;0.30;;;;;;;19.71;48.11;101924.31;16128721;19;130263;-39
2022/10/17 11:15:52;;;;;;;1.13;0.40;;;;;;;19.69;48.33;101932.03;16130354;19;131205;-40
2022/10/17 11:21:35;;;;;;;0.40;0.30;;;;;;;19.71;48.40;101937.34;16127078;19;129984;-40
2022/10/17 11:27:00;;;;;;;0.30;0.30;;;;;;;19.70;48.53;101944.84;16128580;19;130002;-40
2022/10/17 11:32:38;;;;;;;0.30;0.30;;;;;;;19.71;48.55;101948.44;16127723;19;128784;-40
2022/10/17 11:38:03;;;;;;;0.30;0.30;;;;;;;19.68;48.27;101939.53;16132534;19;129842;-40
2022/10/17 11:43:31;;;;;;;0.80;0.40;;;;;;;19.69;48.58;101955.06;16126222;19;129521;-40
2022/10/17 11:49:04;;;;;;;1.60;0.43;;;;;;;19.69;48.09;101955.06;16125507;19;129332;-41
2022/10/17 11:54:33;;;;;;;0.98;0.30;;;;;;;19.71;48.22;101956.78;16125401;19;129995;-40
2022/10/17 12:00:32;;;;;;;0.20;0.20;;;;;;;19.72;48.31;101975.13;16124661;19;129919;-40
2022/10/17 12:06:07;;;;;;;0.40;0.30;;;;;;;19.71;48.27;101974.31;16124405;19;129035;-40
2022/10/17 12:11:35;;;;;;;1.00;0.35;;;;;;;19.72;48.32;101987.09;16123586;19;129578;-40
2022/10/17 12:16:56;;;;;;;1.02;0.22;;;;;;;19.72;48.58;101991.78;16124762;19;130008;-40
2022/10/17 12:22:27;;;;;;;1.23;0.35;;;;;;;19.74;48.55;101997.97;16123729;19;130577;-40
2022/10/17 12:27:50;;;;;;;0.73;0.40;;;;;;;19.75;48.60;102011.66;16118797;19;129617;-40
2022/10/17 12:33:11;;;;;;;1.33;0.30;;;;;;;19.76;48.13;102016.09;16119094;19;129558;-40
2022/10/17 12:38:33;;;;;;;2.20;0.38;;;;;;;19.76;48.59;102015.25;16120299;19;129893;-39
2022/10/17 12:43:55;;;;;;;1.05;0.40;;;;;;;19.76;48.22;102032.75;16116324;19;130194;-40
2022/10/17 12:49:36;;;;;;;1.27;0.40;;;;;;;19.77;48.45;102033.63;16120010;19;129087;-39
2022/10/17 12:55:06;;;;;;;2.38;0.50;;;;;;;19.76;48.23;102049.41;16121781;19;129549;-40
2022/10/17 13:00:50;;;;;;;1.23;0.50;;;;;;;19.78;48.30;102049.22;16124296;19;129765;-40
2022/10/17 13:06:36;;;;;;;0.70;0.60;;;;;;;19.77;48.60;102053.06;16121241;19;129665;-40
2022/10/17 13:12:04;;;;;;;0.77;0.50;;;;;;;19.76;48.75;102060.53;16120995;19;129876;-39
2022/10/17 13:17:29;;;;;;;2.17;0.70;;;;;;;19.76;48.66;102066.06;16119365;19;129361;-40
2022/10/17 13:22:51;;;;;;;1.58;0.65;;;;;;;19.76;48.69;102077.19;16120674;19;129550;-40
2022/10/17 13:28:13;;;;;;;2.72;0.77;;;;;;;19.77;48.57;102078.06;16117239;19;129694;-40
2022/10/17 13:33:38;;;;;;;0.93;0.68;;;;;;;19.78;48.51;102085.31;16118863;19;130116;-40
2022/10/17 13:39:07;;;;;;;1.43;0.60;;;;;;;19.80;48.76;102085.94;16119716;19;129504;-40
2022/10/17 13:44:35;;;;;;;1.17;0.80;;;;;;;19.78;48.95;102100.03;16120046;19;133258;-40
2022/10/17 13:50:04;;;;;;;1.40;0.65;;;;;;;19.79;48.62;102103.66;16120911;19;129434;-40
2022/10/17 13:56:01;;;;;;;2.65;0.70;;;;;;;19.80;48.59;102122.03;16119995;19;129934;-39
2022/10/17 14:01:43;;;;;;;1.63;0.82;;;;;;;19.79;49.02;102128.66;16125135;19;129379;-40
2022/10/17 14:07:18;;;;;;;3.42;0.60;;;;;;;19.79;48.76;102120.31;16135036;19;129877;-40
2022/10/17 14:12:42;;;;;;;1.95;0.70;;;;;;;19.81;48.56;102126.50;16134506;19;129450;-40
2022/10/17 14:18:08;;;;;;;2.03;0.60;;;;;;;19.80;48.95;102127.59;16132130;19;129623;-41
2022/10/17 14:23:29;;;;;;;0.82;0.50;;;;;;;19.79;49.00;102120.31;16131617;19;129357;-40
2022/10/17 14:29:05;;;;;;;1.35;0.68;;;;;;;19.81;48.72;102115.41;16130158;19;130246;-40
2022/10/17 14:34:29;;;;;;;;;;;;;;;19.75;48.60;102116.28;16131079;19;129045;-40
2022/10/17 14:39:53;;;;;;;1.58;0.43;;;;;;;19.76;48.61;102113.28;16130483;19;129365;-45
2022/10/17 14:45:22;;;;;;;1.15;0.63;;;;;;;19.77;48.94;102130.81;16132031;19;130006;-40
2022/10/17 14:51:05;;;;;;;2.38;0.70;;;;;;;19.78;48.73;102132.50;16132917;19;128983;-40
2022/10/17 14:56:36;;;;;;;0.45;0.45;;;;;;;19.77;48.95;102151.09;16128485;19;129298;-40
2022/10/17 15:01:58;;;;;;;1.00;0.63;;;;;;;19.77;48.83;102172.47;16130201;19;129314;-40
2022/10/17 15:07:20;;;;;;;0.45;0.45;;;;;;;19.76;48.65;102165.19;16128926;19;129490;-40
2022/10/17 15:12:42;;;;;;;1.13;0.70;;;;;;;19.76;48.58;102187.41;16125356;19;129821;-39
2022/10/17 15:18:19;;;;;;;1.02;0.60;;;;;;;19.76;48.72;102188.25;16126789;19;129964;-40
2022/10/17 15:23:41;;;;;;;0.80;0.70;;;;;;;19.77;48.65;102189.13;16126484;19;130201;-40
2022/10/17 15:29:03;;;;;;;0.93;0.65;;;;;;;19.76;49.00;102192.97;16120718;19;130662;-40
2022/10/17 15:34:25;;;;;;;2.05;0.68;;;;;;;19.76;48.74;102202.13;16124722;19;130008;-40
2022/10/17 15:39:51;;;;;;;0.90;0.73;;;;;;;19.76;48.66;102198.53;16121412;19;129726;-39
2022/10/17 15:45:16;;;;;;;1.75;0.60;;;;;;;19.75;48.84;102202.38;16122615;19;130106;-39
2022/10/17 15:50:38;;;;;;;3.28;0.70;;;;;;;19.74;49.00;102206.22;16125508;19;129360;-39
2022/10/17 15:56:00;;;;;;;5.72;1.20;;;;;;;19.74;49.35;102209.00;16123705;19;129326;-41
2022/10/17 16:01:25;;;;;;;5.88;1.45;;;;;;;19.77;49.67;102212.16;16120246;19;129685;-42
2022/10/17 16:06:48;;;;;;;6.10;1.70;;;;;;;19.79;49.99;102214.75;16123307;19;129576;-39
2022/10/17 16:12:14;;;;;;;12.30;1.95;;;;;;;19.81;49.83;102223.69;16122287;19;130136;-39
2022/10/17 16:17:36;;;;;;;13.70;2.50;;;;;;;19.81;50.15;102226.47;16120587;19;129906;-39
2022/10/17 16:23:01;;;;;;;11.40;1.73;;;;;;;19.84;50.19;102224.09;16123031;19;129582;-40
2022/10/17 16:28:22;;;;;;;14.52;2.78;;;;;;;19.87;49.83;102228.34;16121700;19;129853;-40
2022/10/17 16:33:44;;;;;;;10.27;2.30;;;;;;;19.88;49.97;102227.28;16123029;19;130265;-39
2022/10/17 16:39:06;;;;;;;14.50;2.70;;;;;;;19.87;49.81;102228.34;16123259;19;130367;-39
2022/10/17 16:44:28;;;;;;;13.52;3.08;;;;;;;19.87;49.81;102233.91;16119497;19;130379;-40
2022/10/17 16:49:50;;;;;;;13.20;3.17;;;;;;;19.88;49.54;102238.38;16123570;19;129497;-40
2022/10/17 16:55:12;;;;;;;15.43;3.92;;;;;;;19.88;49.58;102243.94;16120096;19;130526;-39
2022/10/17 17:00:33;;;;;;;13.30;3.40;;;;;;;19.88;49.40;102252.28;16120022;19;129885;-40
2022/10/17 17:05:55;;;;;;;11.50;3.42;;;;;;;19.89;49.33;102258.66;16117728;19;130027;-39
2022/10/17 17:11:21;;;;;;;11.55;3.55;;;;;;;19.88;49.47;102268.09;16120236;19;131093;-39
2022/10/17 17:16:43;;;;;;;11.02;4.05;;;;;;;19.86;49.23;102264.69;16118575;19;129683;-39
2022/10/17 17:22:04;;;;;;;23.73;4.65;;;;;;;19.82;49.80;102269.81;16119556;19;129519;-39
2022/10/17 17:27:27;;;;;;;31.10;5.53;;;;;;;19.84;50.14;102284.34;16115793;19;129700;-39
2022/10/17 17:32:49;;;;;;;27.80;5.60;;;;;;;19.88;49.98;102274.50;16115690;19;129414;-40
2022/10/17 17:38:11;;;;;;;24.17;5.90;;;;;;;20.09;50.28;102283.59;16125442;19;129703;-41
2022/10/17 17:43:34;;;;;;;28.88;6.25;;;;;;;20.37;49.82;102293.44;16133061;19;129278;-40
2022/10/17 17:48:56;;;;;;;24.83;5.40;;;;;;;20.56;49.18;102292.44;16136947;19;129551;-40
2022/10/17 17:54:17;;;;;;;26.75;6.00;;;;;;;20.73;48.97;102298.31;16134755;19;129892;-39
2022/10/17 17:59:40;;;;;;;24.45;6.38;;;;;;;20.83;49.10;102302.53;16138982;19;129842;-38
2022/10/17 18:05:02;;;;;;;26.45;5.80;;;;;;;20.87;49.48;102304.63;16133466;19;130603;-39
2022/10/17 18:10:23;;;;;;;23.55;6.15;;;;;;;20.89;49.21;102304.38;16132739;19;129263;-39
2022/10/17 18:15:45;;;;;;;29.70;6.47;;;;;;;20.89;49.29;102312.72;16134603;19;130815;-39
2022/10/17 18:21:08;;;;;;;26.77;6.03;;;;;;;20.90;49.63;102318.09;16132553;19;129452;-43
2022/10/17 18:26:30;;;;;;;31.25;6.75;;;;;;;20.95;49.16;102317.41;16130638;19;129352;-40
2022/10/17 18:31:52;;;;;;;34.22;6.70;;;;;;;20.96;49.39;102321.00;16129543;19;130517;-39
2022/10/17 18:37:14;;;;;;;28.25;5.80;;;;;;;20.88;49.30;102317.44;16128642;19;130074;-40
2022/10/17 18:42:35;;;;;;;26.05;5.90;;;;;;;20.87;49.34;102321.31;16128575;19;129954;-39
2022/10/17 18:47:57;;;;;;;21.27;5.65;;;;;;;20.81;49.69;102327.78;16127526;19;129425;-39
2022/10/17 18:53:19;;;;;;;26.33;5.72;;;;;;;20.78;50.00;102333.81;16127654;19;129665;-44
2022/10/17 18:58:41;;;;;;;25.60;6.38;;;;;;;20.75;49.90;102337.00;16127632;19;129768;-39
2022/10/17 19:04:03;;;;;;;40.88;7.47;;;;;;;20.71;50.22;102344.09;16126988;19;129877;-39
2022/10/17 19:09:25;;;;;;;45.88;8.05;;;;;;;20.70;49.91;102347.94;16125922;19;129891;-40
2022/10/17 19:14:49;;;;;;;35.55;7.40;;;;;;;20.70;49.95;102353.50;16125838;19;129492;-40
2022/10/17 19:20:11;;;;;;;33.90;8.57;;;;;;;20.68;50.47;102350.97;16124800;19;129601;-38
2022/10/17 19:25:33;;;;;;;35.83;5.65;;;;;;;20.71;50.17;102344.09;16127157;19;129977;-39
2022/10/17 19:30:54;;;;;;;24.63;6.43;;;;;;;20.73;50.16;102347.50;16131070;19;129676;-39
2022/10/17 19:36:16;;;;;;;34.70;6.15;;;;;;;20.83;50.03;102358.16;16127079;19;130040;-38
2022/10/17 19:41:42;;;;;;;26.83;5.90;;;;;;;20.99;50.00;102360.34;16125575;19;130105;-39
2022/10/17 19:47:04;;;;;;;24.98;5.07;;;;;;;21.14;49.86;102362.81;16125542;19;129623;-39
2022/10/17 19:52:26;;;;;;;14.45;5.10;;;;;;;21.30;49.91;102374.41;16125525;19;130344;-39
2022/10/17 19:57:48;;;;;;;22.52;5.10;;;;;;;21.42;49.49;102375.34;16125932;19;129232;-40
2022/10/17 20:03:10;;;;;;;18.83;5.35;;;;;;;21.50;49.41;102363.09;16124095;19;129615;-41
2022/10/17 20:08:32;;;;;;;24.13;4.70;;;;;;;21.54;49.27;102369.09;16123338;19;129370;-40
2022/10/17 20:13:55;;;;;;;20.77;4.82;;;;;;;21.53;48.82;102379.34;16121432;19;130499;-40
2022/10/17 20:19:17;;;;;;;19.63;5.32;;;;;;;21.47;49.01;102378.31;16124675;19;129115;-41
2022/10/17 20:24:39;;;;;;;20.95;5.22;;;;;;;21.41;48.90;102379.25;16126830;19;129654;-40
2022/10/17 20:30:01;;;;;;;18.60;4.88;;;;;;;21.34;49.23;102386.78;16120463;19;130062;-41
2022/10/17 20:35:23;;;;;;;20.42;4.38;;;;;;;21.26;49.39;102392.66;16122674;19;129773;-40
2022/10/17 20:40:45;;;;;;;12.90;4.30;;;;;;;21.17;49.36;102378.19;16124355;19;130310;-40
2022/10/17 20:46:14;;;;;;;14.88;3.90;;;;;;;21.15;49.11;102383.13;16121415;19;129496;-41
2022/10/17 20:51:55;;;;;;;13.98;4.03;;;;;;;21.05;49.13;102381.72;16122206;19;129941;-40
2022/10/17 20:57:17;;;;;;;11.95;3.03;;;;;;;20.98;49.32;102385.63;16122782;19;129716;-40
2022/10/17 21:02:39;;;;;;;14.40;3.40;;;;;;;20.92;49.22;102401.28;16120945;19;129944;-40
2022/10/17 21:08:01;;;;;;;14.18;3.88;;;;;;;20.85;49.43;102395.78;16122012;19;130639;-41
2022/10/17 21:13:23;;;;;;;13.27;3.70;;;;;;;20.80;49.23;102409.50;16129911;19;129666;-40
2022/10/17 21:18:45;;;;;;;10.35;3.13;;;;;;;20.76;49.37;102424.97;16137884;19;130359;-41
2022/10/17 21:24:13;;;;;;;12.93;3.70;;;;;;;20.73;49.59;102419.81;16137202;19;130166;-41
2022/10/17 21:29:35;;;;;;;13.57;3.63;;;;;;;20.68;49.83;102422.38;16138349;19;129823;-40
2022/10/17 21:34:56;;;;;;;9.18;3.10;;;;;;;20.64;49.81;102429.50;16136888;19;129682;-40
2022/10/17 21:40:18;;;;;;;9.32;2.90;;;;;;;20.62;49.38;102426.09;16134490;19;130229;-41
2022/10/17 21:45:40;;;;;;;13.18;2.70;;;;;;;20.58;49.82;102429.31;16132568;19;131266;-39
2022/10/17 21:51:04;;;;;;;6.72;2.78;;;;;;;20.53;49.59;102423.56;16136959;19;130549;-39
2022/10/17 21:56:27;;;;;;;15.98;3.00;;;;;;;20.54;50.01;102435.53;16131158;19;130698;-40
2022/10/17 22:01:49;;;;;;;7.35;2.33;;;;;;;20.54;49.86;102443.88;16134173;19;129750;-40
2022/10/17 22:07:11;;;;;;;6.07;2.40;;;;;;;20.55;49.94;102440.03;16131642;19;129316;-41
2022/10/17 22:12:32;;;;;;;5.60;2.15;;;;;;;20.56;49.54;102436.16;16129735;19;129524;-41
2022/10/17 22:17:55;;;;;;;10.90;2.40;;;;;;;20.59;49.79;102452.41;16129465;19;130105;-42
2022/10/17 22:23:16;;;;;;;6.93;2.22;;;;;;;20.58;49.71;102451.53;16132306;19;129424;-40
2022/10/17 22:28:39;;;;;;;6.50;2.28;;;;;;;20.56;49.58;102448.13;16131072;19;129647;-40
2022/10/17 22:34:02;;;;;;;9.65;2.30;;;;;;;20.53;49.57;102445.81;16132765;19;130282;-40
2022/10/17 22:39:25;;;;;;;6.65;2.05;;;;;;;20.51;49.76;102449.88;16131723;19;129002;-40
2022/10/17 22:44:48;;;;;;;3.88;1.60;;;;;;;20.49;49.32;102461.22;16132787;19;129479;-39
2022/10/17 22:50:10;;;;;;;8.18;1.95;;;;;;;20.46;49.58;102464.44;16128754;19;130292;-40
2022/10/17 22:55:31;;;;;;;6.38;1.50;;;;;;;20.44;49.33;102461.03;16132068;19;129829;-40
2022/10/17 23:00:54;;;;;;;10.65;1.90;;;;;;;20.42;49.57;102461.25;16128875;19;129522;-39
2022/10/17 23:06:16;;;;;;;7.10;1.75;;;;;;;20.40;49.59;102448.66;16129904;19;130514;-40
2022/10/17 23:11:38;;;;;;;3.28;1.58;;;;;;;20.38;49.59;102446.09;16129594;19;129587;-40
2022/10/17 23:17:00;;;;;;;4.00;1.40;;;;;;;20.36;49.54;102442.69;16130413;19;129454;-40
2022/10/17 23:22:21;;;;;;;2.45;1.23;;;;;;;20.35;49.25;102451.25;16125328;19;130497;-40
2022/10/17 23:27:43;;;;;;;3.50;1.27;;;;;;;20.33;49.21;102453.38;16126873;19;129694;-40
2022/10/17 23:33:06;;;;;;;4.70;1.60;;;;;;;20.32;49.81;102454.47;16122979;19;129912;-40
2022/10/17 23:38:27;;;;;;;3.85;1.30;;;;;;;20.30;49.57;102457.47;16127736;19;129716;-39
2022/10/17 23:43:50;;;;;;;2.85;1.10;;;;;;;20.29;49.48;102448.28;16128756;19;129417;-40
2022/10/17 23:49:11;;;;;;;3.05;1.17;;;;;;;20.27;49.53;102439.31;16125300;19;129196;-40
2022/10/17 23:54:33;;;;;;;5.53;1.27;;;;;;;20.26;49.55;102443.16;16127760;19;131422;-40
2022/10/17 23:59:55;;;;;;;4.00;1.40;;;;;;;20.24;49.56;102438.91;16130425;19;133708;-39
